Terminal Aerodrome Forecast
Issued by NWS Wilmington, OH

Current Version | Previous Version | Graphics & Text | Print | Product List | Glossary On
Versions: 1 2 3 4 5 6 7 8 9 10 11 12 13 14 15 16 17 18 19 20 21
871
FTUS41 KILN 161738
TAFCMH
TAF
KCMH 161738Z 1618/1718 16006KT P6SM SCT005 OVC025
     FM161900 13004KT P6SM OVC008
     FM170500 13004KT 3SM -SHRA BR OVC007
     FM170900 17006KT 2SM -SHRA BR OVC007 WS020/20035KT
     FM171600 21010KT P6SM SCT006 OVC080=

USA.gov is the U.S. government's official web portal to all federal, state and local government web resources and services.